sensor_id;sensor_type;location;lat;lon;timestamp;P1;durP1;ratioP1;P2;durP2;ratioP2
41275;SDS011;27010;47.718;12.912;2024-03-17T00:02:01;2.10;;;1.60;;
41275;SDS011;27010;47.718;12.912;2024-03-17T00:05:02;3.97;;;2.00;;
41275;SDS011;27010;47.718;12.912;2024-03-17T00:08:03;2.00;;;1.80;;
41275;SDS011;27010;47.718;12.912;2024-03-17T00:11:05;2.43;;;1.30;;
41275;SDS011;27010;47.718;12.912;2024-03-17T00:14:06;4.00;;;1.47;;
41275;SDS011;27010;47.718;12.912;2024-03-17T00:17:08;3.10;;;1.40;;
41275;SDS011;27010;47.718;12.912;2024-03-17T00:20:09;1.80;;;1.50;;
41275;SDS011;27010;47.718;12.912;2024-03-17T00:23:19;2.47;;;1.53;;
41275;SDS011;27010;47.718;12.912;2024-03-17T00:26:20;4.57;;;1.70;;
41275;SDS011;27010;47.718;12.912;2024-03-17T00:29:22;5.17;;;1.60;;
41275;SDS011;27010;47.718;12.912;2024-03-17T00:32:24;3.53;;;1.70;;
41275;SDS011;27010;47.718;12.912;2024-03-17T00:35:25;2.10;;;1.67;;
41275;SDS011;27010;47.718;12.912;2024-03-17T00:38:27;2.50;;;2.10;;
41275;SDS011;27010;47.718;12.912;2024-03-17T00:41:28;2.00;;;1.70;;
41275;SDS011;27010;47.718;12.912;2024-03-17T00:44:29;2.90;;;1.87;;
41275;SDS011;27010;47.718;12.912;2024-03-17T00:47:30;2.00;;;1.57;;
41275;SDS011;27010;47.718;12.912;2024-03-17T00:50:32;1.80;;;1.53;;
41275;SDS011;27010;47.718;12.912;2024-03-17T00:53:33;5.50;;;1.60;;
41275;SDS011;27010;47.718;12.912;2024-03-17T00:56:34;1.73;;;1.40;;
41275;SDS011;27010;47.718;12.912;2024-03-17T00:59:36;3.53;;;1.47;;
41275;SDS011;27010;47.718;12.912;2024-03-17T01:02:37;1.90;;;1.80;;
41275;SDS011;27010;47.718;12.912;2024-03-17T01:05:40;3.37;;;1.40;;
41275;SDS011;27010;47.718;12.912;2024-03-17T01:08:43;3.60;;;1.60;;
41275;SDS011;27010;47.718;12.912;2024-03-17T01:11:45;3.17;;;1.50;;
41275;SDS011;27010;47.718;12.912;2024-03-17T01:14:46;1.83;;;1.30;;
41275;SDS011;27010;47.718;12.912;2024-03-17T01:17:48;2.80;;;1.53;;
41275;SDS011;27010;47.718;12.912;2024-03-17T01:20:49;2.70;;;1.70;;
41275;SDS011;27010;47.718;12.912;2024-03-17T01:23:50;2.10;;;1.53;;
41275;SDS011;27010;47.718;12.912;2024-03-17T01:26:52;1.33;;;1.23;;
41275;SDS011;27010;47.718;12.912;2024-03-17T01:29:53;2.03;;;1.37;;
41275;SDS011;27010;47.718;12.912;2024-03-17T01:32:54;1.83;;;1.33;;
41275;SDS011;27010;47.718;12.912;2024-03-17T01:35:56;1.10;;;1.00;;
41275;SDS011;27010;47.718;12.912;2024-03-17T01:38:57;2.13;;;0.90;;
41275;SDS011;27010;47.718;12.912;2024-03-17T01:41:58;1.73;;;0.90;;
41275;SDS011;27010;47.718;12.912;2024-03-17T01:44:59;0.83;;;0.83;;
41275;SDS011;27010;47.718;12.912;2024-03-17T01:48:08;2.00;;;0.87;;
41275;SDS011;27010;47.718;12.912;2024-03-17T01:51:15;1.90;;;0.90;;
41275;SDS011;27010;47.718;12.912;2024-03-17T01:54:16;1.07;;;0.80;;
41275;SDS011;27010;47.718;12.912;2024-03-17T01:57:18;1.00;;;0.90;;
41275;SDS011;27010;47.718;12.912;2024-03-17T02:00:20;1.63;;;0.80;;
41275;SDS011;27010;47.718;12.912;2024-03-17T02:03:22;2.47;;;0.90;;
41275;SDS011;27010;47.718;12.912;2024-03-17T02:06:23;1.00;;;0.87;;
41275;SDS011;27010;47.718;12.912;2024-03-17T02:09:24;1.13;;;1.00;;
41275;SDS011;27010;47.718;12.912;2024-03-17T02:12:26;2.33;;;0.90;;
41275;SDS011;27010;47.718;12.912;2024-03-17T02:15:32;2.20;;;1.00;;
41275;SDS011;27010;47.718;12.912;2024-03-17T02:18:34;1.07;;;0.97;;
41275;SDS011;27010;47.718;12.912;2024-03-17T02:21:35;1.13;;;0.90;;
41275;SDS011;27010;47.718;12.912;2024-03-17T02:24:38;1.10;;;1.00;;
41275;SDS011;27010;47.718;12.912;2024-03-17T02:27:40;1.80;;;0.87;;
41275;SDS011;27010;47.718;12.912;2024-03-17T02:30:41;2.23;;;1.17;;
41275;SDS011;27010;47.718;12.912;2024-03-17T02:33:43;6.60;;;1.20;;
41275;SDS011;27010;47.718;12.912;2024-03-17T02:36:45;1.50;;;1.00;;
41275;SDS011;27010;47.718;12.912;2024-03-17T02:39:47;1.30;;;1.10;;
41275;SDS011;27010;47.718;12.912;2024-03-17T02:42:48;1.20;;;1.10;;
41275;SDS011;27010;47.718;12.912;2024-03-17T02:45:49;1.10;;;1.00;;
41275;SDS011;27010;47.718;12.912;2024-03-17T02:48:52;1.20;;;1.10;;
41275;SDS011;27010;47.718;12.912;2024-03-17T02:51:54;1.20;;;1.10;;
41275;SDS011;27010;47.718;12.912;2024-03-17T02:54:55;1.27;;;1.00;;
41275;SDS011;27010;47.718;12.912;2024-03-17T02:58:02;2.03;;;1.03;;
41275;SDS011;27010;47.718;12.912;2024-03-17T03:02:24;1.20;;;0.93;;
41275;SDS011;27010;47.718;12.912;2024-03-17T03:05:35;2.23;;;0.93;;
41275;SDS011;27010;47.718;12.912;2024-03-17T03:08:36;1.20;;;1.10;;
41275;SDS011;27010;47.718;12.912;2024-03-17T03:11:42;2.27;;;1.10;;
41275;SDS011;27010;47.718;12.912;2024-03-17T03:14:43;1.30;;;1.20;;
41275;SDS011;27010;47.718;12.912;2024-03-17T03:17:44;1.70;;;1.60;;
41275;SDS011;27010;47.718;12.912;2024-03-17T03:20:52;1.27;;;1.10;;
41275;SDS011;27010;47.718;12.912;2024-03-17T03:23:56;2.20;;;0.97;;
41275;SDS011;27010;47.718;12.912;2024-03-17T03:26:58;2.23;;;1.00;;
41275;SDS011;27010;47.718;12.912;2024-03-17T03:29:59;1.10;;;1.00;;
41275;SDS011;27010;47.718;12.912;2024-03-17T03:33:00;1.80;;;1.37;;
41275;SDS011;27010;47.718;12.912;2024-03-17T03:36:09;1.43;;;1.27;;
41275;SDS011;27010;47.718;12.912;2024-03-17T03:39:12;1.90;;;1.33;;
41275;SDS011;27010;47.718;12.912;2024-03-17T03:42:14;1.80;;;1.40;;
41275;SDS011;27010;47.718;12.912;2024-03-17T03:45:16;1.37;;;1.20;;
41275;SDS011;27010;47.718;12.912;2024-03-17T03:48:17;5.13;;;1.53;;
41275;SDS011;27010;47.718;12.912;2024-03-17T03:51:18;1.47;;;1.20;;
41275;SDS011;27010;47.718;12.912;2024-03-17T03:54:20;2.00;;;1.50;;
41275;SDS011;27010;47.718;12.912;2024-03-17T03:57:21;4.73;;;2.00;;
41275;SDS011;27010;47.718;12.912;2024-03-17T04:00:22;3.40;;;2.00;;
41275;SDS011;27010;47.718;12.912;2024-03-17T04:03:24;5.57;;;2.67;;
41275;SDS011;27010;47.718;12.912;2024-03-17T04:06:26;2.30;;;2.10;;
41275;SDS011;27010;47.718;12.912;2024-03-17T04:09:27;3.50;;;2.20;;
41275;SDS011;27010;47.718;12.912;2024-03-17T04:12:28;3.07;;;1.93;;
41275;SDS011;27010;47.718;12.912;2024-03-17T04:15:33;5.20;;;2.03;;
41275;SDS011;27010;47.718;12.912;2024-03-17T04:18:36;2.27;;;1.87;;
41275;SDS011;27010;47.718;12.912;2024-03-17T04:21:38;1.43;;;1.30;;
41275;SDS011;27010;47.718;12.912;2024-03-17T04:24:39;2.00;;;1.70;;
41275;SDS011;27010;47.718;12.912;2024-03-17T04:27:40;2.10;;;1.90;;
41275;SDS011;27010;47.718;12.912;2024-03-17T04:30:41;3.00;;;1.80;;
41275;SDS011;27010;47.718;12.912;2024-03-17T04:33:46;1.83;;;1.67;;
41275;SDS011;27010;47.718;12.912;2024-03-17T04:36:47;1.87;;;1.73;;
41275;SDS011;27010;47.718;12.912;2024-03-17T04:39:48;1.73;;;1.43;;
41275;SDS011;27010;47.718;12.912;2024-03-17T04:42:49;2.37;;;1.70;;
41275;SDS011;27010;47.718;12.912;2024-03-17T04:45:58;2.67;;;1.93;;
41275;SDS011;27010;47.718;12.912;2024-03-17T04:49:01;2.73;;;1.67;;
41275;SDS011;27010;47.718;12.912;2024-03-17T04:52:04;4.13;;;2.10;;
41275;SDS011;27010;47.718;12.912;2024-03-17T04:55:06;1.60;;;1.50;;
41275;SDS011;27010;47.718;12.912;2024-03-17T04:58:10;6.03;;;1.87;;
41275;SDS011;27010;47.718;12.912;2024-03-17T05:01:11;2.00;;;1.80;;
41275;SDS011;27010;47.718;12.912;2024-03-17T05:04:13;2.90;;;2.13;;
41275;SDS011;27010;47.718;12.912;2024-03-17T05:07:15;2.33;;;2.13;;
41275;SDS011;27010;47.718;12.912;2024-03-17T05:10:17;2.13;;;1.80;;
41275;SDS011;27010;47.718;12.912;2024-03-17T05:13:18;2.33;;;2.00;;
41275;SDS011;27010;47.718;12.912;2024-03-17T05:16:25;3.00;;;2.00;;
41275;SDS011;27010;47.718;12.912;2024-03-17T05:20:30;2.43;;;2.00;;
41275;SDS011;27010;47.718;12.912;2024-03-17T05:23:33;2.37;;;2.00;;
41275;SDS011;27010;47.718;12.912;2024-03-17T05:26:35;3.83;;;2.40;;
41275;SDS011;27010;47.718;12.912;2024-03-17T05:29:37;2.10;;;1.50;;
41275;SDS011;27010;47.718;12.912;2024-03-17T05:32:38;2.17;;;1.97;;
41275;SDS011;27010;47.718;12.912;2024-03-17T05:36:16;2.73;;;2.20;;
41275;SDS011;27010;47.718;12.912;2024-03-17T05:39:11;3.43;;;2.23;;
41275;SDS011;27010;47.718;12.912;2024-03-17T05:42:12;2.17;;;1.97;;
41275;SDS011;27010;47.718;12.912;2024-03-17T05:45:13;2.73;;;2.17;;
41275;SDS011;27010;47.718;12.912;2024-03-17T05:48:15;2.60;;;2.20;;
41275;SDS011;27010;47.718;12.912;2024-03-17T05:51:16;3.13;;;2.03;;
41275;SDS011;27010;47.718;12.912;2024-03-17T05:54:18;2.10;;;1.83;;
41275;SDS011;27010;47.718;12.912;2024-03-17T05:57:19;1.90;;;1.47;;
41275;SDS011;27010;47.718;12.912;2024-03-17T06:00:21;1.67;;;1.57;;
41275;SDS011;27010;47.718;12.912;2024-03-17T06:03:22;1.63;;;1.50;;
41275;SDS011;27010;47.718;12.912;2024-03-17T06:06:23;1.40;;;1.30;;
41275;SDS011;27010;47.718;12.912;2024-03-17T06:09:24;1.73;;;1.00;;
41275;SDS011;27010;47.718;12.912;2024-03-17T06:12:25;1.23;;;1.07;;
41275;SDS011;27010;47.718;12.912;2024-03-17T06:15:26;2.17;;;1.40;;
41275;SDS011;27010;47.718;12.912;2024-03-17T06:18:28;1.20;;;1.10;;
41275;SDS011;27010;47.718;12.912;2024-03-17T06:21:29;1.10;;;1.00;;
41275;SDS011;27010;47.718;12.912;2024-03-17T06:24:31;2.60;;;1.10;;
41275;SDS011;27010;47.718;12.912;2024-03-17T06:27:32;3.73;;;1.00;;
41275;SDS011;27010;47.718;12.912;2024-03-17T06:30:36;0.97;;;0.90;;
41275;SDS011;27010;47.718;12.912;2024-03-17T06:33:37;1.93;;;1.80;;
41275;SDS011;27010;47.718;12.912;2024-03-17T06:36:38;3.03;;;2.00;;
41275;SDS011;27010;47.718;12.912;2024-03-17T06:39:40;5.83;;;2.80;;
41275;SDS011;27010;47.718;12.912;2024-03-17T06:42:41;3.73;;;2.80;;
41275;SDS011;27010;47.718;12.912;2024-03-17T06:45:42;2.70;;;2.40;;
41275;SDS011;27010;47.718;12.912;2024-03-17T06:48:44;4.27;;;2.63;;
41275;SDS011;27010;47.718;12.912;2024-03-17T06:51:45;2.47;;;2.17;;
41275;SDS011;27010;47.718;12.912;2024-03-17T06:54:47;4.00;;;2.60;;
41275;SDS011;27010;47.718;12.912;2024-03-17T06:57:50;2.47;;;2.23;;
41275;SDS011;27010;47.718;12.912;2024-03-17T07:00:52;3.40;;;2.80;;
41275;SDS011;27010;47.718;12.912;2024-03-17T07:03:58;2.27;;;2.03;;
41275;SDS011;27010;47.718;12.912;2024-03-17T07:07:00;4.50;;;2.47;;
41275;SDS011;27010;47.718;12.912;2024-03-17T07:10:01;2.67;;;2.27;;
41275;SDS011;27010;47.718;12.912;2024-03-17T07:13:05;3.73;;;2.63;;
41275;SDS011;27010;47.718;12.912;2024-03-17T07:16:06;3.13;;;2.83;;
41275;SDS011;27010;47.718;12.912;2024-03-17T07:19:08;4.23;;;2.80;;
41275;SDS011;27010;47.718;12.912;2024-03-17T07:22:09;2.90;;;2.57;;
41275;SDS011;27010;47.718;12.912;2024-03-17T07:25:10;3.37;;;2.60;;
41275;SDS011;27010;47.718;12.912;2024-03-17T07:28:11;2.90;;;2.57;;
41275;SDS011;27010;47.718;12.912;2024-03-17T07:31:12;3.33;;;3.00;;
41275;SDS011;27010;47.718;12.912;2024-03-17T07:34:13;3.53;;;2.80;;
41275;SDS011;27010;47.718;12.912;2024-03-17T07:37:15;3.07;;;2.63;;
41275;SDS011;27010;47.718;12.912;2024-03-17T07:40:16;2.87;;;2.43;;
41275;SDS011;27010;47.718;12.912;2024-03-17T07:43:17;3.97;;;2.70;;
41275;SDS011;27010;47.718;12.912;2024-03-17T07:46:19;2.07;;;1.87;;
41275;SDS011;27010;47.718;12.912;2024-03-17T07:49:20;3.63;;;2.17;;
41275;SDS011;27010;47.718;12.912;2024-03-17T07:52:21;3.30;;;1.83;;
41275;SDS011;27010;47.718;12.912;2024-03-17T07:55:23;1.77;;;1.50;;
41275;SDS011;27010;47.718;12.912;2024-03-17T07:58:24;2.03;;;1.30;;
41275;SDS011;27010;47.718;12.912;2024-03-17T08:01:29;1.57;;;1.13;;
41275;SDS011;27010;47.718;12.912;2024-03-17T08:04:30;0.90;;;0.90;;
41275;SDS011;27010;47.718;12.912;2024-03-17T08:07:31;1.23;;;1.00;;
41275;SDS011;27010;47.718;12.912;2024-03-17T08:10:32;2.50;;;1.10;;
41275;SDS011;27010;47.718;12.912;2024-03-17T08:13:34;2.17;;;2.00;;
41275;SDS011;27010;47.718;12.912;2024-03-17T08:16:35;1.43;;;1.03;;
41275;SDS011;27010;47.718;12.912;2024-03-17T08:19:37;1.10;;;1.00;;
41275;SDS011;27010;47.718;12.912;2024-03-17T08:22:39;1.10;;;0.73;;
41275;SDS011;27010;47.718;12.912;2024-03-17T08:25:41;1.23;;;0.93;;
41275;SDS011;27010;47.718;12.912;2024-03-17T08:28:42;1.13;;;0.90;;
41275;SDS011;27010;47.718;12.912;2024-03-17T08:31:43;0.63;;;0.60;;
41275;SDS011;27010;47.718;12.912;2024-03-17T08:34:48;0.90;;;0.70;;
41275;SDS011;27010;47.718;12.912;2024-03-17T08:37:50;1.30;;;0.87;;
41275;SDS011;27010;47.718;12.912;2024-03-17T08:40:58;0.70;;;0.60;;
41275;SDS011;27010;47.718;12.912;2024-03-17T08:44:03;1.20;;;0.67;;
41275;SDS011;27010;47.718;12.912;2024-03-17T08:47:06;0.50;;;0.50;;
41275;SDS011;27010;47.718;12.912;2024-03-17T08:50:07;0.70;;;0.70;;
41275;SDS011;27010;47.718;12.912;2024-03-17T08:53:09;1.27;;;0.83;;
41275;SDS011;27010;47.718;12.912;2024-03-17T08:56:10;0.93;;;0.70;;
41275;SDS011;27010;47.718;12.912;2024-03-17T08:59:11;0.80;;;0.50;;
41275;SDS011;27010;47.718;12.912;2024-03-17T09:02:13;0.57;;;0.57;;
41275;SDS011;27010;47.718;12.912;2024-03-17T09:05:15;1.53;;;0.47;;
41275;SDS011;27010;47.718;12.912;2024-03-17T09:08:17;0.50;;;0.50;;
41275;SDS011;27010;47.718;12.912;2024-03-17T09:11:22;0.50;;;0.50;;
41275;SDS011;27010;47.718;12.912;2024-03-17T09:14:27;0.40;;;0.40;;
41275;SDS011;27010;47.718;12.912;2024-03-17T09:17:28;0.63;;;0.50;;
41275;SDS011;27010;47.718;12.912;2024-03-17T09:20:29;0.63;;;0.40;;
41275;SDS011;27010;47.718;12.912;2024-03-17T09:23:30;0.93;;;0.60;;
41275;SDS011;27010;47.718;12.912;2024-03-17T09:26:35;0.83;;;0.60;;
41275;SDS011;27010;47.718;12.912;2024-03-17T09:29:36;0.67;;;0.47;;
41275;SDS011;27010;47.718;12.912;2024-03-17T09:32:37;0.77;;;0.40;;
41275;SDS011;27010;47.718;12.912;2024-03-17T09:35:38;0.63;;;0.50;;
41275;SDS011;27010;47.718;12.912;2024-03-17T09:38:40;0.90;;;0.60;;
41275;SDS011;27010;47.718;12.912;2024-03-17T09:41:41;0.50;;;0.50;;
41275;SDS011;27010;47.718;12.912;2024-03-17T09:44:43;0.40;;;0.40;;
41275;SDS011;27010;47.718;12.912;2024-03-17T09:47:46;1.77;;;0.50;;
41275;SDS011;27010;47.718;12.912;2024-03-17T09:50:58;0.77;;;0.47;;
41275;SDS011;27010;47.718;12.912;2024-03-17T09:54:01;0.67;;;0.67;;
41275;SDS011;27010;47.718;12.912;2024-03-17T09:57:16;0.97;;;0.50;;
41275;SDS011;27010;47.718;12.912;2024-03-17T10:00:18;1.13;;;0.70;;
41275;SDS011;27010;47.718;12.912;2024-03-17T10:07:04;0.40;;;0.40;;
41275;SDS011;27010;47.718;12.912;2024-03-17T10:10:12;1.07;;;0.60;;
41275;SDS011;27010;47.718;12.912;2024-03-17T10:13:14;0.83;;;0.60;;
41275;SDS011;27010;47.718;12.912;2024-03-17T10:16:22;2.23;;;0.70;;
41275;SDS011;27010;47.718;12.912;2024-03-17T10:19:25;0.87;;;0.60;;
41275;SDS011;27010;47.718;12.912;2024-03-17T10:22:28;1.33;;;0.90;;
41275;SDS011;27010;47.718;12.912;2024-03-17T10:25:30;1.43;;;0.60;;
41275;SDS011;27010;47.718;12.912;2024-03-17T10:28:33;0.90;;;0.80;;
41275;SDS011;27010;47.718;12.912;2024-03-17T10:31:38;1.90;;;1.40;;
41275;SDS011;27010;47.718;12.912;2024-03-17T10:34:40;1.33;;;1.17;;
41275;SDS011;27010;47.718;12.912;2024-03-17T10:37:53;1.23;;;1.13;;
41275;SDS011;27010;47.718;12.912;2024-03-17T10:40:56;2.13;;;1.30;;
41275;SDS011;27010;47.718;12.912;2024-03-17T10:43:57;1.40;;;1.30;;
41275;SDS011;27010;47.718;12.912;2024-03-17T10:47:01;1.20;;;1.10;;
41275;SDS011;27010;47.718;12.912;2024-03-17T10:50:03;2.70;;;1.30;;
41275;SDS011;27010;47.718;12.912;2024-03-17T10:53:08;1.47;;;1.33;;
41275;SDS011;27010;47.718;12.912;2024-03-17T10:56:09;3.27;;;1.20;;
41275;SDS011;27010;47.718;12.912;2024-03-17T10:59:12;1.90;;;1.23;;
41275;SDS011;27010;47.718;12.912;2024-03-17T11:02:32;3.53;;;1.60;;
41275;SDS011;27010;47.718;12.912;2024-03-17T11:05:33;1.90;;;1.33;;
41275;SDS011;27010;47.718;12.912;2024-03-17T11:08:35;1.90;;;1.40;;
41275;SDS011;27010;47.718;12.912;2024-03-17T11:11:37;5.43;;;1.60;;
41275;SDS011;27010;47.718;12.912;2024-03-17T11:14:42;1.33;;;1.20;;
41275;SDS011;27010;47.718;12.912;2024-03-17T11:17:47;5.43;;;1.57;;
41275;SDS011;27010;47.718;12.912;2024-03-17T11:24:21;2.13;;;1.30;;
41275;SDS011;27010;47.718;12.912;2024-03-17T11:27:41;4.17;;;1.23;;
41275;SDS011;27010;47.718;12.912;2024-03-17T11:36:46;2.37;;;1.10;;
41275;SDS011;27010;47.718;12.912;2024-03-17T11:39:54;1.30;;;1.20;;
41275;SDS011;27010;47.718;12.912;2024-03-17T11:43:02;1.83;;;1.47;;
41275;SDS011;27010;47.718;12.912;2024-03-17T11:46:05;2.50;;;1.40;;
41275;SDS011;27010;47.718;12.912;2024-03-17T11:49:20;2.83;;;1.80;;
41275;SDS011;27010;47.718;12.912;2024-03-17T11:52:25;2.43;;;1.63;;
41275;SDS011;27010;47.718;12.912;2024-03-17T11:55:27;2.90;;;2.00;;
41275;SDS011;27010;47.718;12.912;2024-03-17T11:58:28;4.47;;;1.83;;
41275;SDS011;27010;47.718;12.912;2024-03-17T12:01:30;3.97;;;1.50;;
41275;SDS011;27010;47.718;12.912;2024-03-17T12:04:31;1.43;;;1.23;;
41275;SDS011;27010;47.718;12.912;2024-03-17T12:07:32;1.40;;;1.07;;
41275;SDS011;27010;47.718;12.912;2024-03-17T12:10:35;1.47;;;1.10;;
41275;SDS011;27010;47.718;12.912;2024-03-17T12:13:48;2.67;;;1.40;;
41275;SDS011;27010;47.718;12.912;2024-03-17T12:16:53;3.40;;;1.60;;
41275;SDS011;27010;47.718;12.912;2024-03-17T12:19:56;4.17;;;1.80;;
41275;SDS011;27010;47.718;12.912;2024-03-17T12:22:57;2.20;;;1.57;;
41275;SDS011;27010;47.718;12.912;2024-03-17T12:25:58;2.43;;;2.00;;
41275;SDS011;27010;47.718;12.912;2024-03-17T12:29:00;4.30;;;2.17;;
41275;SDS011;27010;47.718;12.912;2024-03-17T12:32:05;4.80;;;2.60;;
41275;SDS011;27010;47.718;12.912;2024-03-17T12:35:35;1.87;;;1.60;;
41275;SDS011;27010;47.718;12.912;2024-03-17T12:38:36;2.97;;;1.60;;
41275;SDS011;27010;47.718;12.912;2024-03-17T12:41:37;1.80;;;1.53;;
41275;SDS011;27010;47.718;12.912;2024-03-17T12:44:39;2.47;;;2.00;;
41275;SDS011;27010;47.718;12.912;2024-03-17T12:47:50;2.93;;;1.50;;
41275;SDS011;27010;47.718;12.912;2024-03-17T12:50:53;2.10;;;1.60;;
41275;SDS011;27010;47.718;12.912;2024-03-17T12:54:11;1.87;;;1.67;;
41275;SDS011;27010;47.718;12.912;2024-03-17T12:57:15;3.23;;;1.80;;
41275;SDS011;27010;47.718;12.912;2024-03-17T13:00:35;1.90;;;1.67;;
41275;SDS011;27010;47.718;12.912;2024-03-17T13:03:37;4.73;;;2.20;;
41275;SDS011;27010;47.718;12.912;2024-03-17T13:06:40;2.30;;;1.67;;
41275;SDS011;27010;47.718;12.912;2024-03-17T13:09:41;1.50;;;1.40;;
41275;SDS011;27010;47.718;12.912;2024-03-17T13:12:44;2.50;;;1.60;;
41275;SDS011;27010;47.718;12.912;2024-03-17T13:15:47;2.27;;;1.60;;
41275;SDS011;27010;47.718;12.912;2024-03-17T13:18:48;4.47;;;1.80;;
41275;SDS011;27010;47.718;12.912;2024-03-17T13:21:49;1.97;;;1.40;;
41275;SDS011;27010;47.718;12.912;2024-03-17T13:24:50;4.07;;;1.67;;
41275;SDS011;27010;47.718;12.912;2024-03-17T13:27:52;4.20;;;3.00;;
41275;SDS011;27010;47.718;12.912;2024-03-17T13:30:53;2.20;;;1.60;;
41275;SDS011;27010;47.718;12.912;2024-03-17T13:33:54;1.53;;;1.23;;
41275;SDS011;27010;47.718;12.912;2024-03-17T13:36:56;2.23;;;1.40;;
41275;SDS011;27010;47.718;12.912;2024-03-17T13:39:57;2.90;;;1.40;;
41275;SDS011;27010;47.718;12.912;2024-03-17T13:42:58;3.30;;;1.73;;
41275;SDS011;27010;47.718;12.912;2024-03-17T13:46:00;3.20;;;1.53;;
41275;SDS011;27010;47.718;12.912;2024-03-17T13:49:06;2.20;;;1.63;;
41275;SDS011;27010;47.718;12.912;2024-03-17T13:52:09;2.75;;;1.60;;
41275;SDS011;27010;47.718;12.912;2024-03-17T13:55:23;4.00;;;2.07;;
41275;SDS011;27010;47.718;12.912;2024-03-17T13:58:28;2.13;;;1.57;;
41275;SDS011;27010;47.718;12.912;2024-03-17T14:01:29;3.83;;;1.60;;
41275;SDS011;27010;47.718;12.912;2024-03-17T14:04:30;2.17;;;1.43;;
41275;SDS011;27010;47.718;12.912;2024-03-17T14:07:31;3.83;;;1.97;;
41275;SDS011;27010;47.718;12.912;2024-03-17T14:10:33;3.60;;;1.90;;
41275;SDS011;27010;47.718;12.912;2024-03-17T14:13:36;2.33;;;1.47;;
41275;SDS011;27010;47.718;12.912;2024-03-17T14:16:37;3.20;;;1.63;;
41275;SDS011;27010;47.718;12.912;2024-03-17T14:19:38;1.90;;;1.50;;
41275;SDS011;27010;47.718;12.912;2024-03-17T14:22:40;2.30;;;1.67;;
41275;SDS011;27010;47.718;12.912;2024-03-17T14:25:44;4.70;;;1.57;;
41275;SDS011;27010;47.718;12.912;2024-03-17T14:28:46;1.97;;;1.40;;
41275;SDS011;27010;47.718;12.912;2024-03-17T14:31:48;1.77;;;1.10;;
41275;SDS011;27010;47.718;12.912;2024-03-17T14:34:49;3.15;;;1.65;;
41275;SDS011;27010;47.718;12.912;2024-03-17T14:37:50;2.75;;;1.58;;
41275;SDS011;27010;47.718;12.912;2024-03-17T14:40:52;1.50;;;1.20;;
41275;SDS011;27010;47.718;12.912;2024-03-17T14:43:54;1.53;;;1.27;;
41275;SDS011;27010;47.718;12.912;2024-03-17T14:46:55;2.30;;;1.30;;
41275;SDS011;27010;47.718;12.912;2024-03-17T14:49:56;2.47;;;1.33;;
41275;SDS011;27010;47.718;12.912;2024-03-17T14:52:57;2.43;;;1.40;;
41275;SDS011;27010;47.718;12.912;2024-03-17T14:55:58;2.90;;;1.60;;
41275;SDS011;27010;47.718;12.912;2024-03-17T14:59:00;1.67;;;1.37;;
41275;SDS011;27010;47.718;12.912;2024-03-17T15:02:01;1.70;;;1.17;;
41275;SDS011;27010;47.718;12.912;2024-03-17T15:05:02;1.53;;;1.30;;
41275;SDS011;27010;47.718;12.912;2024-03-17T15:08:04;2.20;;;1.50;;
41275;SDS011;27010;47.718;12.912;2024-03-17T15:11:06;1.37;;;0.90;;
41275;SDS011;27010;47.718;12.912;2024-03-17T15:14:10;2.40;;;1.17;;
41275;SDS011;27010;47.718;12.912;2024-03-17T15:17:11;2.97;;;1.10;;
41275;SDS011;27010;47.718;12.912;2024-03-17T15:20:12;3.53;;;1.50;;
41275;SDS011;27010;47.718;12.912;2024-03-17T15:23:21;2.57;;;1.30;;
41275;SDS011;27010;47.718;12.912;2024-03-17T15:26:23;2.50;;;1.10;;
41275;SDS011;27010;47.718;12.912;2024-03-17T15:29:25;2.17;;;1.27;;
41275;SDS011;27010;47.718;12.912;2024-03-17T15:32:26;2.80;;;1.00;;
41275;SDS011;27010;47.718;12.912;2024-03-17T15:35:27;2.43;;;1.00;;
41275;SDS011;27010;47.718;12.912;2024-03-17T15:38:31;4.43;;;1.37;;
41275;SDS011;27010;47.718;12.912;2024-03-17T15:41:35;2.20;;;1.37;;
41275;SDS011;27010;47.718;12.912;2024-03-17T15:44:38;1.30;;;0.97;;
41275;SDS011;27010;47.718;12.912;2024-03-17T15:47:40;2.67;;;1.40;;
41275;SDS011;27010;47.718;12.912;2024-03-17T15:50:41;1.90;;;1.20;;
41275;SDS011;27010;47.718;12.912;2024-03-17T15:53:46;1.87;;;1.30;;
41275;SDS011;27010;47.718;12.912;2024-03-17T15:56:51;1.50;;;0.90;;
41275;SDS011;27010;47.718;12.912;2024-03-17T15:59:53;3.00;;;1.00;;
41275;SDS011;27010;47.718;12.912;2024-03-17T16:02:55;2.67;;;0.83;;
41275;SDS011;27010;47.718;12.912;2024-03-17T16:06:16;2.20;;;1.17;;
41275;SDS011;27010;47.718;12.912;2024-03-17T16:09:18;2.97;;;1.00;;
41275;SDS011;27010;47.718;12.912;2024-03-17T16:12:20;3.43;;;1.10;;
41275;SDS011;27010;47.718;12.912;2024-03-17T16:15:22;1.60;;;0.90;;
41275;SDS011;27010;47.718;12.912;2024-03-17T16:18:24;1.80;;;0.80;;
41275;SDS011;27010;47.718;12.912;2024-03-17T16:21:26;3.00;;;1.47;;
41275;SDS011;27010;47.718;12.912;2024-03-17T16:24:28;3.13;;;1.30;;
41275;SDS011;27010;47.718;12.912;2024-03-17T16:27:29;2.00;;;1.00;;
41275;SDS011;27010;47.718;12.912;2024-03-17T16:30:31;3.27;;;1.20;;
41275;SDS011;27010;47.718;12.912;2024-03-17T16:33:36;3.50;;;1.77;;
41275;SDS011;27010;47.718;12.912;2024-03-17T16:36:38;3.07;;;1.80;;
41275;SDS011;27010;47.718;12.912;2024-03-17T16:39:41;3.40;;;2.10;;
41275;SDS011;27010;47.718;12.912;2024-03-17T16:42:42;3.60;;;1.70;;
41275;SDS011;27010;47.718;12.912;2024-03-17T16:45:52;2.30;;;1.77;;
41275;SDS011;27010;47.718;12.912;2024-03-17T16:49:06;4.00;;;1.60;;
41275;SDS011;27010;47.718;12.912;2024-03-17T16:52:07;2.93;;;1.80;;
41275;SDS011;27010;47.718;12.912;2024-03-17T16:55:09;3.83;;;1.90;;
41275;SDS011;27010;47.718;12.912;2024-03-17T16:58:10;3.87;;;2.00;;
41275;SDS011;27010;47.718;12.912;2024-03-17T17:01:12;5.37;;;1.57;;
41275;SDS011;27010;47.718;12.912;2024-03-17T17:04:15;3.40;;;1.90;;
41275;SDS011;27010;47.718;12.912;2024-03-17T17:07:16;2.70;;;1.50;;
41275;SDS011;27010;47.718;12.912;2024-03-17T17:10:17;5.80;;;1.90;;
41275;SDS011;27010;47.718;12.912;2024-03-17T17:13:21;5.57;;;2.33;;
41275;SDS011;27010;47.718;12.912;2024-03-17T17:16:23;4.00;;;1.90;;
41275;SDS011;27010;47.718;12.912;2024-03-17T17:19:24;6.30;;;1.83;;
41275;SDS011;27010;47.718;12.912;2024-03-17T17:22:26;2.13;;;1.10;;
41275;SDS011;27010;47.718;12.912;2024-03-17T17:25:28;6.30;;;1.50;;
41275;SDS011;27010;47.718;12.912;2024-03-17T17:28:29;1.23;;;1.10;;
41275;SDS011;27010;47.718;12.912;2024-03-17T17:31:31;2.47;;;1.40;;
41275;SDS011;27010;47.718;12.912;2024-03-17T17:34:36;1.87;;;1.00;;
41275;SDS011;27010;47.718;12.912;2024-03-17T17:37:38;6.40;;;1.23;;
41275;SDS011;27010;47.718;12.912;2024-03-17T17:40:39;2.27;;;1.30;;
41275;SDS011;27010;47.718;12.912;2024-03-17T17:43:42;2.77;;;0.90;;
41275;SDS011;27010;47.718;12.912;2024-03-17T17:46:43;2.17;;;0.97;;
41275;SDS011;27010;47.718;12.912;2024-03-17T17:49:45;3.80;;;1.03;;
41275;SDS011;27010;47.718;12.912;2024-03-17T17:52:46;5.40;;;1.10;;
41275;SDS011;27010;47.718;12.912;2024-03-17T17:55:48;0.93;;;0.90;;
41275;SDS011;27010;47.718;12.912;2024-03-17T17:58:49;2.43;;;0.97;;
41275;SDS011;27010;47.718;12.912;2024-03-17T18:01:51;2.10;;;1.20;;
41275;SDS011;27010;47.718;12.912;2024-03-17T18:04:54;1.53;;;1.00;;
41275;SDS011;27010;47.718;12.912;2024-03-17T18:07:56;1.97;;;1.17;;
41275;SDS011;27010;47.718;12.912;2024-03-17T18:10:57;3.13;;;1.30;;
41275;SDS011;27010;47.718;12.912;2024-03-17T18:13:58;3.50;;;1.30;;
41275;SDS011;27010;47.718;12.912;2024-03-17T18:16:59;5.47;;;1.17;;
41275;SDS011;27010;47.718;12.912;2024-03-17T18:20:00;3.40;;;1.10;;